Time;durP1;ratioP1;P1;durP2;ratioP2;P2;SDS_P1;SDS_P2;PMS_P1;PMS_P2;Temp;Humidity;BMP_temperature;BMP_pressure;BME280_temperature;BME280_humidity;BME280_pressure;Samples;Min_cycle;Max_cycle;Signal;HPM_P1;HPM_P2
2022/03/24 00:01:34;;;;;;;44.92;24.30;;;5.70;99.90;;;;;;5039647;28;20155;-76
2022/03/24 00:03:59;;;;;;;45.17;23.83;;;5.60;99.90;;;;;;5051610;28;20104;-75
2022/03/24 00:06:25;;;;;;;43.17;22.85;;;5.60;99.90;;;;;;5051709;28;20113;-76
2022/03/24 00:08:50;;;;;;;43.78;24.50;;;5.50;99.90;;;;;;5033149;28;20452;-75
2022/03/24 00:11:17;;;;;;;46.70;25.65;;;5.40;99.90;;;;;;5051411;28;20029;-76
2022/03/24 00:13:43;;;;;;;48.88;25.58;;;5.50;99.90;;;;;;5039505;28;20030;-76
2022/03/24 00:16:09;;;;;;;41.30;24.50;;;5.50;99.90;;;;;;5040203;28;20082;-74
2022/03/24 00:18:35;;;;;;;39.45;23.00;;;5.50;99.90;;;;;;5039275;28;20025;-74
2022/03/24 00:21:02;;;;;;;45.08;25.15;;;5.40;99.90;;;;;;5056736;28;20103;-75
2022/03/24 00:23:27;;;;;;;41.60;23.48;;;5.30;99.90;;;;;;5034445;28;20366;-75
2022/03/24 00:25:53;;;;;;;42.42;23.38;;;5.20;99.90;;;;;;5033598;28;20099;-76
2022/03/24 00:28:19;;;;;;;39.60;23.20;;;5.10;99.90;;;;;;5033510;28;20472;-74
2022/03/24 00:30:45;;;;;;;42.25;23.58;;;5.00;99.90;;;;;;5052242;28;20041;-75
2022/03/24 00:33:12;;;;;;;41.80;22.67;;;4.90;99.90;;;;;;5051673;28;20079;-75
2022/03/24 00:35:38;;;;;;;44.90;24.45;;;4.90;99.90;;;;;;5051365;28;20025;-76
2022/03/24 00:38:05;;;;;;;41.50;23.23;;;4.80;99.90;;;;;;5051455;28;20036;-76
2022/03/24 00:40:30;;;;;;;43.17;23.10;;;4.80;99.90;;;;;;5051075;28;20089;-76
2022/03/24 00:42:56;;;;;;;40.22;22.75;;;4.70;99.90;;;;;;5032814;28;20028;-76
2022/03/24 00:45:22;;;;;;;39.28;23.35;;;4.70;99.90;;;;;;5067448;22;20046;-78
2022/03/24 00:47:48;;;;;;;44.08;23.38;;;4.60;99.90;;;;;;5021670;28;20041;-79
2022/03/24 00:50:14;;;;;;;43.97;24.88;;;4.60;99.90;;;;;;5020263;28;20129;-80
2022/03/24 00:52:44;;;;;;;43.90;23.90;;;4.60;99.90;;;;;;5040519;28;20178;-79
2022/03/24 00:55:15;;;;;;;47.72;24.05;;;4.70;99.90;;;;;;5021552;28;20025;-81
2022/03/24 00:57:43;;;;;;;42.45;24.23;;;4.60;99.90;;;;;;5022165;28;20103;-79
2022/03/24 01:00:15;;;;;;;40.85;23.65;;;4.60;99.90;;;;;;5022670;28;20025;-78
2022/03/24 01:02:41;;;;;;;45.92;25.38;;;4.60;99.90;;;;;;5043624;28;20024;-80
2022/03/24 01:05:08;;;;;;;44.08;25.30;;;4.60;99.90;;;;;;5025631;28;20083;-80
2022/03/24 01:07:34;;;;;;;46.08;23.60;;;4.60;99.90;;;;;;5025049;28;20382;-79
2022/03/24 01:10:00;;;;;;;44.33;25.05;;;4.60;99.90;;;;;;5025087;28;20037;-81
2022/03/24 01:12:25;;;;;;;45.80;26.00;;;4.60;99.90;;;;;;5031037;28;20029;-76
2022/03/24 01:14:51;;;;;;;42.67;25.25;;;4.70;99.90;;;;;;5050140;28;20029;-78
2022/03/24 01:17:17;;;;;;;49.00;25.38;;;4.60;99.90;;;;;;5048371;28;20041;-82
2022/03/24 01:19:44;;;;;;;45.25;24.38;;;4.60;99.90;;;;;;5045072;28;20017;-80
2022/03/24 01:22:09;;;;;;;43.80;24.50;;;4.60;99.90;;;;;;5023881;28;20136;-79
2022/03/24 01:24:38;;;;;;;47.67;26.20;;;4.60;99.90;;;;;;5021778;28;20508;-78
2022/03/24 01:27:05;;;;;;;50.25;27.63;;;4.50;99.90;;;;;;5021781;28;20068;-79
2022/03/24 01:29:31;;;;;;;51.15;26.45;;;4.50;99.90;;;;;;5038960;28;20024;-79
2022/03/24 01:31:57;;;;;;;43.92;27.40;;;4.50;99.90;;;;;;5039650;28;20044;-78
2022/03/24 01:34:24;;;;;;;49.63;26.13;;;4.50;99.90;;;;;;5039809;28;20021;-80
2022/03/24 01:36:50;;;;;;;47.95;26.10;;;4.40;99.90;;;;;;5020660;28;20153;-77
2022/03/24 01:39:15;;;;;;;46.08;25.58;;;4.40;99.90;;;;;;5037818;28;20373;-78
2022/03/24 01:41:44;;;;;;;43.17;23.98;;;4.40;99.90;;;;;;5020338;28;20030;-77
2022/03/24 01:44:14;;;;;;;51.33;25.88;;;4.30;99.90;;;;;;5038329;28;20022;-79
2022/03/24 01:47:00;;;;;;;40.75;24.17;;;4.20;99.90;;;;;;5021280;28;20021;-77
2022/03/24 01:49:28;;;;;;;49.42;26.17;;;4.20;99.90;;;;;;5037719;28;20108;-77
2022/03/24 01:51:57;;;;;;;46.53;24.92;;;4.10;99.90;;;;;;5020243;28;20369;-81
2022/03/24 01:54:24;;;;;;;45.65;24.75;;;4.10;99.90;;;;;;5037223;28;20155;-78
2022/03/24 01:56:50;;;;;;;46.08;25.52;;;4.00;99.90;;;;;;5037057;28;20053;-79
2022/03/24 01:59:17;;;;;;;44.92;26.17;;;4.00;99.90;;;;;;5018196;28;20029;-79
2022/03/24 02:01:44;;;;;;;49.10;25.73;;;3.90;99.90;;;;;;5036118;28;20579;-80
2022/03/24 02:04:10;;;;;;;46.58;25.80;;;3.90;99.90;;;;;;5018708;28;20021;-78
2022/03/24 02:06:36;;;;;;;41.95;24.20;;;3.90;99.90;;;;;;5036395;28;20029;-78
2022/03/24 02:09:03;;;;;;;40.45;24.10;;;3.80;99.90;;;;;;5036178;28;20022;-78
2022/03/24 02:11:36;;;;;;;42.25;23.50;;;3.80;99.90;;;;;;5035704;28;20112;-77
2022/03/24 02:14:02;;;;;;;49.38;25.52;;;3.70;99.90;;;;;;5017671;28;20611;-79
2022/03/24 02:16:39;;;;;;;47.55;26.52;;;3.70;99.90;;;;;;5035447;28;20030;-77
2022/03/24 02:19:12;;;;;;;43.42;25.17;;;3.70;99.90;;;;;;5016975;28;20398;-78
2022/03/24 02:21:39;;;;;;;40.58;24.55;;;3.60;99.90;;;;;;5034725;28;20393;-79
2022/03/24 02:24:05;;;;;;;45.60;25.13;;;3.60;99.90;;;;;;5016453;28;20117;-80
2022/03/24 02:26:31;;;;;;;47.67;26.52;;;3.50;99.90;;;;;;5034324;28;20021;-78
2022/03/24 02:28:57;;;;;;;48.50;26.27;;;3.50;99.90;;;;;;5016330;28;20248;-78
2022/03/24 02:31:23;;;;;;;48.42;26.27;;;3.50;99.90;;;;;;5016605;28;20499;-79
2022/03/24 02:34:37;;;;;;;41.60;24.45;;;3.40;99.90;;;;;;5016417;28;20075;-78
2022/03/24 02:36:39;;;;;;;46.20;25.00;;;3.40;99.90;;;;;;5034944;28;20025;-79
2022/03/24 02:39:05;;;;;;;52.03;26.85;;;3.40;99.90;;;;;;5016618;28;20030;-78
2022/03/24 02:41:31;;;;;;;43.72;25.00;;;3.30;99.90;;;;;;5034737;28;20107;-78
2022/03/24 02:43:57;;;;;;;49.13;26.77;;;3.30;99.90;;;;;;5021212;28;20472;-79
2022/03/24 02:46:22;;;;;;;52.70;27.38;;;3.30;99.90;;;;;;5054181;28;20028;-78
2022/03/24 02:48:48;;;;;;;49.13;25.85;;;3.30;99.90;;;;;;5036229;28;20033;-77
2022/03/24 02:51:13;;;;;;;43.85;24.58;;;3.30;99.90;;;;;;5059264;28;20412;-78
2022/03/24 02:53:39;;;;;;;50.28;26.85;;;3.30;99.90;;;;;;5059320;28;20064;-78
2022/03/24 02:56:05;;;;;;;50.60;26.80;;;3.30;99.90;;;;;;5060942;28;20036;-78
2022/03/24 02:58:31;;;;;;;44.90;25.40;;;3.30;99.90;;;;;;5041979;28;20524;-76
2022/03/24 03:00:57;;;;;;;50.97;28.08;;;3.30;99.90;;;;;;5061619;28;20051;-76
2022/03/24 03:03:24;;;;;;;51.70;26.38;;;3.30;99.90;;;;;;5044853;28;20021;-76
2022/03/24 03:05:50;;;;;;;44.35;25.88;;;3.30;99.90;;;;;;5061832;28;20441;-78
2022/03/24 03:08:15;;;;;;;48.33;27.40;;;3.30;99.90;;;;;;5044226;28;20025;-77
2022/03/24 03:10:41;;;;;;;50.45;26.98;;;3.30;99.90;;;;;;5058837;28;20031;-77
2022/03/24 03:13:08;;;;;;;49.15;28.13;;;3.40;99.90;;;;;;5039185;28;20033;-76
2022/03/24 03:15:35;;;;;;;48.03;25.17;;;3.40;99.90;;;;;;5056478;28;20021;-77
2022/03/24 03:18:02;;;;;;;44.22;24.48;;;3.40;99.90;;;;;;5056572;28;20393;-77
2022/03/24 03:20:28;;;;;;;46.13;25.23;;;3.20;99.90;;;;;;5056004;28;20017;-78
2022/03/24 03:22:55;;;;;;;42.33;24.42;;;3.10;99.90;;;;;;5040554;28;20057;-79
2022/03/24 03:25:22;;;;;;;44.22;25.30;;;3.10;99.90;;;;;;5049091;28;20040;-77
2022/03/24 03:27:48;;;;;;;50.33;24.73;;;3.00;99.90;;;;;;5066282;28;20066;-76
2022/03/24 03:30:14;;;;;;;48.95;26.85;;;2.90;99.90;;;;;;5041680;28;20546;-77
2022/03/24 03:32:42;;;;;;;45.70;26.55;;;2.90;99.90;;;;;;5056134;28;20021;-78
2022/03/24 03:35:08;;;;;;;46.53;25.33;;;2.80;99.90;;;;;;5038438;28;20044;-78
2022/03/24 03:37:34;;;;;;;48.22;27.33;;;2.90;99.90;;;;;;5055614;28;20036;-80
2022/03/24 03:39:59;;;;;;;47.33;26.48;;;2.80;99.90;;;;;;5037116;28;20040;-79
2022/03/24 03:42:25;;;;;;;46.40;25.98;;;2.80;99.90;;;;;;5038980;28;20274;-81
2022/03/24 03:44:51;;;;;;;54.65;28.65;;;2.80;99.90;;;;;;5044672;28;20086;-79
2022/03/24 03:47:17;;;;;;;49.35;26.30;;;2.70;99.90;;;;;;5021124;28;20527;-79
2022/03/24 03:49:43;;;;;;;46.58;25.88;;;2.70;99.90;;;;;;5039607;28;20033;-78
2022/03/24 03:52:08;;;;;;;45.58;24.95;;;2.70;99.90;;;;;;5038914;28;20496;-80
2022/03/24 03:54:34;;;;;;;44.22;25.58;;;2.60;99.90;;;;;;5038328;28;20033;-76
2022/03/24 03:56:59;;;;;;;54.83;28.77;;;2.70;99.90;;;;;;5037879;28;20040;-79
2022/03/24 03:59:25;;;;;;;47.15;27.33;;;2.60;99.90;;;;;;5021697;28;20043;-80
2022/03/24 04:01:51;;;;;;;47.17;26.88;;;2.70;99.90;;;;;;5040410;28;20049;-80
2022/03/24 04:04:16;;;;;;;50.60;27.77;;;2.70;99.90;;;;;;5036697;28;20097;-77
2022/03/24 04:06:42;;;;;;;46.67;26.73;;;2.70;99.90;;;;;;5038340;28;20026;-79
2022/03/24 04:09:07;;;;;;;49.38;25.95;;;2.70;99.90;;;;;;5036447;28;20032;-81
2022/03/24 04:11:35;;;;;;;49.58;27.50;;;2.70;99.90;;;;;;5036775;28;20021;-79
2022/03/24 04:14:01;;;;;;;51.40;26.38;;;2.70;99.90;;;;;;5037028;28;20104;-77
2022/03/24 04:16:26;;;;;;;47.75;25.30;;;2.60;99.90;;;;;;5020058;28;20123;-81
2022/03/24 04:18:52;;;;;;;49.90;26.15;;;2.50;99.90;;;;;;5040847;28;20031;-77
2022/03/24 04:21:18;;;;;;;47.95;26.50;;;2.40;99.90;;;;;;5041244;28;20055;-78
2022/03/24 04:23:44;;;;;;;46.50;26.08;;;2.30;99.90;;;;;;5023377;28;20047;-78
2022/03/24 04:26:13;;;;;;;51.33;28.70;;;2.20;99.90;;;;;;5022172;28;20032;-77
2022/03/24 04:28:43;;;;;;;50.70;27.55;;;2.20;99.90;;;;;;5040889;28;20022;-77
2022/03/24 04:31:08;;;;;;;49.70;27.50;;;2.20;99.90;;;;;;5022643;28;20373;-79
2022/03/24 04:33:34;;;;;;;53.67;27.10;;;2.20;99.90;;;;;;5041881;28;20040;-80
2022/03/24 04:35:59;;;;;;;56.10;27.40;;;2.30;99.90;;;;;;5043218;28;20025;-80
2022/03/24 04:38:26;;;;;;;53.03;25.75;;;2.30;99.90;;;;;;5029075;28;20225;-78
2022/03/24 04:40:53;;;;;;;54.05;28.00;;;2.30;99.90;;;;;;5026711;28;20018;-79
2022/03/24 04:43:19;;;;;;;49.40;27.30;;;2.30;99.90;;;;;;5025258;28;20024;-81
2022/03/24 04:45:45;;;;;;;51.65;27.55;;;2.30;99.90;;;;;;5064859;28;20061;-77
2022/03/24 04:48:10;;;;;;;57.85;30.65;;;2.30;99.90;;;;;;5075573;28;20029;-79
2022/03/24 04:50:36;;;;;;;57.35;29.50;;;2.40;99.90;;;;;;5056788;28;20029;-77
2022/03/24 04:53:02;;;;;;;55.83;29.95;;;2.40;99.90;;;;;;5046558;28;20033;-78
2022/03/24 04:55:28;;;;;;;50.50;28.10;;;2.40;99.90;;;;;;5060655;28;20399;-77
2022/03/24 04:57:53;;;;;;;50.80;26.65;;;2.50;99.90;;;;;;5057443;28;20028;-80
2022/03/24 05:00:19;;;;;;;52.95;28.35;;;2.40;99.90;;;;;;5040639;28;20490;-76
2022/03/24 05:02:46;;;;;;;51.05;27.65;;;2.40;99.90;;;;;;5041284;28;20436;-78
2022/03/24 05:05:12;;;;;;;59.58;29.20;;;2.40;99.90;;;;;;5059204;28;20049;-76
2022/03/24 05:07:38;;;;;;;53.58;27.80;;;2.50;99.90;;;;;;5041332;28;20025;-79
2022/03/24 05:10:05;;;;;;;52.78;28.30;;;2.40;99.90;;;;;;5058903;28;20029;-80
2022/03/24 05:12:30;;;;;;;47.30;27.23;;;2.40;99.90;;;;;;5041990;28;20378;-76
2022/03/24 05:14:56;;;;;;;52.13;27.58;;;2.30;99.90;;;;;;5039638;28;20035;-78
2022/03/24 05:17:22;;;;;;;56.75;27.63;;;2.30;99.90;;;;;;5059633;28;20176;-77
2022/03/24 05:19:48;;;;;;;54.00;28.27;;;2.30;99.90;;;;;;5061283;28;20056;-78
2022/03/24 05:22:15;;;;;;;51.55;28.70;;;2.30;99.90;;;;;;5059391;28;20605;-78
2022/03/24 05:24:41;;;;;;;54.90;27.05;;;2.40;99.90;;;;;;5056103;28;20029;-76
2022/03/24 05:27:07;;;;;;;51.65;28.05;;;2.30;99.90;;;;;;5057848;28;20043;-75
2022/03/24 05:29:34;;;;;;;56.55;28.42;;;2.30;99.90;;;;;;5041271;28;20025;-78
2022/03/24 05:31:59;;;;;;;60.08;28.02;;;2.30;99.90;;;;;;5038072;28;20423;-79
2022/03/24 05:34:25;;;;;;;55.08;27.75;;;2.30;99.90;;;;;;5038632;28;20025;-78
2022/03/24 05:36:51;;;;;;;47.90;27.95;;;2.40;99.90;;;;;;5061001;28;20021;-77
2022/03/24 05:39:17;;;;;;;53.08;27.45;;;2.30;99.90;;;;;;5049587;28;20028;-81
2022/03/24 05:41:43;;;;;;;55.25;28.95;;;2.30;99.90;;;;;;5062144;28;20021;-80
2022/03/24 05:44:08;;;;;;;53.10;27.83;;;2.40;99.90;;;;;;5056623;28;20033;-81
2022/03/24 05:46:44;;;;;;;52.78;28.35;;;2.40;99.90;;;;;;5043373;28;20075;-80
2022/03/24 05:49:13;;;;;;;62.53;30.02;;;2.40;99.90;;;;;;5040293;28;20029;-80
2022/03/24 05:51:39;;;;;;;53.25;28.02;;;2.50;99.90;;;;;;5042999;28;20049;-80
2022/03/24 05:54:04;;;;;;;50.88;27.88;;;2.60;99.90;;;;;;5024754;28;20085;-79
2022/03/24 05:56:30;;;;;;;57.05;30.10;;;2.60;99.90;;;;;;5041475;28;20025;-77
2022/03/24 05:58:56;;;;;;;56.25;29.80;;;2.70;99.90;;;;;;5041011;28;20033;-77
2022/03/24 06:01:24;;;;;;;50.55;28.52;;;2.80;99.90;;;;;;5039116;28;20555;-79
2022/03/24 06:03:51;;;;;;;54.35;27.65;;;2.90;99.90;;;;;;5038932;28;20499;-77
2022/03/24 06:06:17;;;;;;;55.00;30.25;;;3.00;99.90;;;;;;5038917;28;20025;-80
2022/03/24 06:08:43;;;;;;;57.13;30.50;;;3.10;99.90;;;;;;5019302;28;20080;-80
2022/03/24 06:11:14;;;;;;;47.83;28.05;;;3.20;99.90;;;;;;5037650;28;20362;-79
2022/03/24 06:13:40;;;;;;;52.28;28.63;;;3.30;99.90;;;;;;5019429;28;20032;-79
2022/03/24 06:16:07;;;;;;;49.53;28.52;;;3.40;99.90;;;;;;5036491;28;20029;-78
2022/03/24 06:18:33;;;;;;;54.58;29.00;;;3.50;99.90;;;;;;5018404;28;20365;-80
2022/03/24 06:21:02;;;;;;;55.03;28.13;;;3.70;99.90;;;;;;5019850;28;20021;-79
2022/03/24 06:23:28;;;;;;;51.35;27.25;;;3.80;99.90;;;;;;5038593;28;20115;-79
2022/03/24 06:25:54;;;;;;;41.72;25.02;;;4.00;99.90;;;;;;5038126;28;20021;-79
2022/03/24 06:28:19;;;;;;;46.97;25.55;;;4.20;99.90;;;;;;5021773;28;20049;-80
2022/03/24 06:30:45;;;;;;;48.65;25.65;;;4.40;99.90;;;;;;5021420;28;20089;-80
2022/03/24 06:33:11;;;;;;;47.38;25.88;;;4.60;99.90;;;;;;5021755;28;20029;-80
2022/03/24 06:35:37;;;;;;;46.30;26.35;;;4.80;99.90;;;;;;5040211;28;20044;-79
2022/03/24 06:38:03;;;;;;;45.85;26.65;;;5.10;99.90;;;;;;5022854;28;20075;-80
2022/03/24 06:40:29;;;;;;;51.42;27.20;;;5.30;99.90;;;;;;5040699;28;20018;-79
2022/03/24 06:42:54;;;;;;;49.80;28.20;;;5.50;99.90;;;;;;5041565;28;20090;-79
2022/03/24 06:45:20;;;;;;;43.33;26.20;;;5.70;99.90;;;;;;5058306;28;20033;-80
2022/03/24 06:47:47;;;;;;;52.83;27.58;;;5.90;99.90;;;;;;5060098;28;20085;-78
2022/03/24 06:50:13;;;;;;;42.60;25.08;;;6.20;99.90;;;;;;5043120;28;20032;-79
2022/03/24 06:52:42;;;;;;;46.95;26.23;;;6.50;99.90;;;;;;5061705;28;20137;-78
2022/03/24 06:55:09;;;;;;;48.47;27.88;;;6.80;99.90;;;;;;5059315;28;20169;-79
2022/03/24 06:57:36;;;;;;;41.10;24.70;;;7.10;99.90;;;;;;5063117;28;20479;-80
2022/03/24 07:00:02;;;;;;;46.30;27.83;;;7.50;99.90;;;;;;5065301;28;20095;-77
2022/03/24 07:02:28;;;;;;;45.78;27.35;;;7.70;99.90;;;;;;5064288;28;20492;-77
2022/03/24 07:04:54;;;;;;;48.33;27.65;;;7.90;99.90;;;;;;5043883;28;20051;-81
2022/03/24 07:07:20;;;;;;;42.25;24.15;;;8.20;99.90;;;;;;5054961;28;20021;-78
2022/03/24 07:09:45;;;;;;;41.17;25.45;;;8.40;99.90;;;;;;5056005;28;20084;-78
2022/03/24 07:12:11;;;;;;;41.95;24.85;;;8.70;99.90;;;;;;5056598;28;20068;-79
2022/03/24 07:14:37;;;;;;;43.63;24.90;;;8.90;99.90;;;;;;5056845;28;20021;-78
2022/03/24 07:17:04;;;;;;;46.85;26.95;;;9.10;99.90;;;;;;5037269;28;20361;-79
2022/03/24 07:19:30;;;;;;;44.65;27.35;;;9.30;99.90;;;;;;5056331;28;20088;-79
2022/03/24 07:21:55;;;;;;;44.38;26.45;;;9.50;99.90;;;;;;5055808;28;20437;-80
2022/03/24 07:24:21;;;;;;;54.15;26.95;;;9.80;99.90;;;;;;5037903;28;20025;-79
2022/03/24 07:26:46;;;;;;;50.47;26.05;;;10.00;99.90;;;;;;5055451;28;20029;-79
2022/03/24 07:29:12;;;;;;;52.10;26.73;;;10.20;99.90;;;;;;5054908;28;20025;-78
2022/03/24 07:31:38;;;;;;;49.13;26.17;;;10.50;99.90;;;;;;5037614;28;20029;-79
2022/03/24 07:34:04;;;;;;;48.72;26.63;;;10.80;99.90;;;;;;5041146;28;20021;-79
2022/03/24 07:36:30;;;;;;;44.90;26.90;;;11.00;99.90;;;;;;5037769;28;20021;-78
2022/03/24 07:38:58;;;;;;;46.10;25.92;;;11.20;99.90;;;;;;5054815;28;20086;-79
2022/03/24 07:41:24;;;;;;;38.83;24.73;;;11.50;99.90;;;;;;5039159;28;20401;-78
2022/03/24 07:43:50;;;;;;;53.65;28.20;;;11.80;99.90;;;;;;5037215;28;20060;-80
2022/03/24 07:46:16;;;;;;;45.42;27.02;;;12.10;99.90;;;;;;5036622;28;20018;-79
2022/03/24 07:48:46;;;;;;;47.65;28.20;;;12.30;97.20;;;;;;5037835;28;20087;-82
2022/03/24 07:51:13;;;;;;;40.92;26.50;;;12.60;94.80;;;;;;5047076;28;20025;-83
2022/03/24 07:53:48;;;;;;;49.05;27.00;;;12.80;93.40;;;;;;5027082;28;20021;-78
2022/03/24 07:56:15;;;;;;;49.92;29.77;;;13.00;89.70;;;;;;5042501;28;20030;-80
2022/03/24 07:58:40;;;;;;;45.92;27.08;;;13.10;84.90;;;;;;5042354;28;20489;-82
2022/03/24 08:01:06;;;;;;;49.28;28.60;;;13.40;85.80;;;;;;5041055;28;20053;-80
2022/03/24 08:03:34;;;;;;;47.25;26.90;;;13.70;82.50;;;;;;5021879;28;20026;-80
2022/03/24 08:06:01;;;;;;;47.80;28.02;;;13.90;78.40;;;;;;5022750;28;20027;-76
2022/03/24 08:08:26;;;;;;;46.13;27.92;;;14.20;76.30;;;;;;5039189;28;20036;-78
2022/03/24 08:10:53;;;;;;;50.13;28.15;;;14.20;72.80;;;;;;5039306;28;20025;-78
2022/03/24 08:13:20;;;;;;;46.47;28.77;;;14.20;71.80;;;;;;5038036;28;20429;-78
2022/03/24 08:15:47;;;;;;;52.00;32.00;;;14.30;71.00;;;;;;5019793;28;20026;-78
2022/03/24 08:18:14;;;;;;;53.10;30.65;;;14.50;67.90;;;;;;5038017;28;20560;-79
2022/03/24 08:20:42;;;;;;;49.83;30.13;;;14.50;68.30;;;;;;5038926;28;20080;-79
2022/03/24 08:23:09;;;;;;;53.20;28.77;;;14.60;66.50;;;;;;5036501;28;20045;-79
2022/03/24 08:25:35;;;;;;;50.42;29.40;;;14.70;67.10;;;;;;5021175;28;20025;-78
2022/03/24 08:28:02;;;;;;;57.35;32.55;;;15.10;67.30;;;;;;5036658;28;20025;-79
2022/03/24 08:30:27;;;;;;;59.05;31.08;;;15.50;65.30;;;;;;5037465;28;20022;-78
2022/03/24 08:32:54;;;;;;;52.60;32.35;;;15.50;63.70;;;;;;5037302;28;20576;-80
2022/03/24 08:35:20;;;;;;;52.33;30.77;;;15.70;61.80;;;;;;5036203;28;20029;-80
2022/03/24 08:37:45;;;;;;;53.42;30.83;;;15.70;61.30;;;;;;5036598;28;20036;-79
2022/03/24 08:40:12;;;;;;;66.57;32.53;;;16.10;63.20;;;;;;5018873;28;20033;-77
2022/03/24 08:42:39;;;;;;;54.53;33.50;;;16.30;62.40;;;;;;5018604;28;20136;-80
2022/03/24 08:45:09;;;;;;;52.63;31.02;;;16.50;60.70;;;;;;5049915;28;20116;-80
2022/03/24 08:47:36;;;;;;;46.53;30.15;;;16.60;60.10;;;;;;5038742;28;20021;-77
2022/03/24 08:50:04;;;;;;;54.10;31.67;;;16.60;59.10;;;;;;5056542;28;20495;-79
2022/03/24 08:52:29;;;;;;;48.85;29.48;;;16.50;59.60;;;;;;5058312;28;20025;-80
2022/03/24 08:54:55;;;;;;;48.47;30.33;;;16.60;60.20;;;;;;5068392;28;20032;-76
2022/03/24 08:57:28;;;;;;;51.70;30.77;;;16.70;59.50;;;;;;5047664;28;20021;-78
2022/03/24 08:59:54;;;;;;;50.00;30.70;;;16.70;59.10;;;;;;5044143;28;20104;-79
2022/03/24 09:02:20;;;;;;;45.55;29.75;;;16.80;58.70;;;;;;5057240;28;20436;-80
2022/03/24 09:04:47;;;;;;;52.20;30.98;;;17.00;59.00;;;;;;5061479;28;20085;-79
2022/03/24 09:07:13;;;;;;;46.70;31.58;;;17.40;58.50;;;;;;5055442;28;20021;-80
2022/03/24 09:09:40;;;;;;;49.63;30.02;;;17.40;56.90;;;;;;5055218;28;20435;-77
2022/03/24 09:12:06;;;;;;;52.85;32.30;;;17.60;57.10;;;;;;5056095;28;20112;-78
2022/03/24 09:14:32;;;;;;;50.30;31.13;;;17.80;55.80;;;;;;5038185;28;20085;-77
2022/03/24 09:16:57;;;;;;;51.33;31.65;;;17.80;55.60;;;;;;5056003;28;20071;-77
2022/03/24 09:19:23;;;;;;;54.03;32.30;;;18.00;55.40;;;;;;5054504;28;20028;-79
2022/03/24 09:21:50;;;;;;;51.30;32.13;;;18.10;54.90;;;;;;5056312;28;20021;-79
2022/03/24 09:24:16;;;;;;;51.90;32.55;;;18.00;54.60;;;;;;5059356;28;20056;-78
2022/03/24 09:26:42;;;;;;;47.67;29.98;;;18.00;54.90;;;;;;5059227;28;20028;-77
2022/03/24 09:29:08;;;;;;;57.75;32.28;;;18.20;55.80;;;;;;5059590;28;20025;-78
2022/03/24 09:31:35;;;;;;;56.53;32.80;;;18.30;54.00;;;;;;5059789;28;20052;-77
2022/03/24 09:34:01;;;;;;;50.80;31.23;;;18.30;52.90;;;;;;5041497;28;20025;-80
2022/03/24 09:36:27;;;;;;;51.70;30.83;;;18.40;53.90;;;;;;5059723;28;20078;-78
2022/03/24 09:38:53;;;;;;;55.65;33.42;;;18.40;53.10;;;;;;5042082;28;20021;-79
2022/03/24 09:41:19;;;;;;;56.95;33.38;;;18.50;52.90;;;;;;5060100;28;20027;-78
2022/03/24 09:43:45;;;;;;;54.15;33.45;;;18.50;53.40;;;;;;5039873;28;20085;-79
2022/03/24 09:46:11;;;;;;;53.03;31.75;;;18.60;53.60;;;;;;5023288;28;20405;-77
2022/03/24 09:48:40;;;;;;;58.85;31.75;;;18.60;53.70;;;;;;5039496;28;20037;-78
2022/03/24 09:51:05;;;;;;;52.33;32.63;;;18.60;54.10;;;;;;5038581;28;20551;-79
2022/03/24 09:53:31;;;;;;;52.75;32.42;;;18.60;54.40;;;;;;5039240;28;20090;-78
2022/03/24 09:55:57;;;;;;;54.05;34.03;;;18.90;53.30;;;;;;5024314;28;20025;-78
2022/03/24 09:58:26;;;;;;;50.55;32.58;;;19.10;52.10;;;;;;5048390;28;20175;-79
2022/03/24 10:00:52;;;;;;;48.53;30.45;;;19.00;50.80;;;;;;5047420;28;20026;-80
2022/03/24 10:03:21;;;;;;;50.45;32.85;;;19.00;52.10;;;;;;5046978;28;20078;-80
2022/03/24 10:05:58;;;;;;;55.70;33.42;;;19.20;50.50;;;;;;5047323;28;20060;-79
2022/03/24 10:08:24;;;;;;;50.13;33.17;;;19.10;50.00;;;;;;5027323;28;20104;-80
2022/03/24 10:10:55;;;;;;;57.70;33.03;;;18.90;50.00;;;;;;5043097;28;20053;-78
2022/03/24 10:13:53;;;;;;;50.38;32.47;;;19.10;49.80;;;;;;5043525;28;20409;-77
2022/03/24 10:16:41;;;;;;;50.40;30.90;;;18.90;49.90;;;;;;5025965;28;20124;-79
2022/03/24 10:19:08;;;;;;;45.25;29.80;;;19.20;48.40;;;;;;5041012;28;20044;-77
2022/03/24 10:21:37;;;;;;;49.28;31.85;;;19.30;48.30;;;;;;5021205;28;20025;-78
2022/03/24 10:24:18;;;;;;;44.85;30.30;;;19.50;47.80;;;;;;5024040;28;20510;-78
2022/03/24 10:26:47;;;;;;;55.03;32.60;;;19.60;47.40;;;;;;5018919;28;20068;-77
2022/03/24 10:29:21;;;;;;;48.63;32.85;;;19.70;47.60;;;;;;5019010;28;20338;-78
2022/03/24 10:31:55;;;;;;;50.53;32.65;;;19.70;47.60;;;;;;5019118;28;20428;-79
2022/03/24 10:34:29;;;;;;;44.53;30.52;;;19.70;48.40;;;;;;5017838;28;20112;-78
2022/03/24 10:36:54;;;;;;;50.50;32.25;;;19.80;46.80;;;;;;5018392;28;20032;-78
2022/03/24 10:39:25;;;;;;;48.65;32.35;;;19.70;46.00;;;;;;5035405;28;20029;-77
2022/03/24 10:41:52;;;;;;;54.05;32.20;;;19.70;46.00;;;;;;5036346;28;20115;-78
2022/03/24 10:44:17;;;;;;;51.40;31.45;;;19.40;46.50;;;;;;5045014;28;20094;-79
2022/03/24 10:46:44;;;;;;;49.42;33.13;;;19.60;47.60;;;;;;5055488;28;20468;-78
2022/03/24 10:49:27;;;;;;;48.03;31.27;;;19.60;45.90;;;;;;5054778;28;20052;-79
2022/03/24 10:51:53;;;;;;;48.17;33.42;;;19.80;45.50;;;;;;5037806;28;20028;-78
2022/03/24 10:54:41;;;;;;;45.63;30.63;;;19.80;46.00;;;;;;5055816;28;20392;-80
2022/03/24 10:57:14;;;;;;;46.25;30.25;;;20.10;46.70;;;;;;5054533;28;20127;-79
2022/03/24 10:59:58;;;;;;;44.40;30.83;;;20.20;44.90;;;;;;5037769;28;20439;-78
2022/03/24 11:02:24;;;;;;;46.22;32.05;;;20.10;44.90;;;;;;5041341;28;20021;-81
2022/03/24 11:04:51;;;;;;;44.38;29.15;;;20.00;43.40;;;;;;5043983;28;20016;-79
2022/03/24 11:07:27;;;;;;;40.60;28.42;;;20.10;44.50;;;;;;5062064;28;20059;-78
2022/03/24 11:09:53;;;;;;;35.63;27.08;;;20.40;42.40;;;;;;5042027;28;20017;-77
2022/03/24 11:12:34;;;;;;;44.40;28.98;;;20.50;41.60;;;;;;5059255;28;20100;-79
2022/03/24 11:15:02;;;;;;;45.97;29.85;;;20.60;41.00;;;;;;5059327;28;20361;-78
2022/03/24 11:17:33;;;;;;;42.72;30.58;;;20.70;43.20;;;;;;5045235;28;20051;-81
2022/03/24 11:20:06;;;;;;;40.88;30.13;;;20.80;40.60;;;;;;5045520;28;20586;-79
2022/03/24 11:22:56;;;;;;;38.28;27.02;;;20.60;39.50;;;;;;5045771;28;20051;-80
2022/03/24 11:25:23;;;;;;;34.50;25.77;;;20.50;41.00;;;;;;5061824;28;20033;-78
2022/03/24 11:27:50;;;;;;;34.42;25.50;;;20.50;39.10;;;;;;5063937;28;20025;-78
2022/03/24 11:30:18;;;;;;;47.67;31.23;;;20.40;38.50;;;;;;5044467;28;20025;-80
2022/03/24 11:32:45;;;;;;;43.22;29.27;;;20.20;42.10;;;;;;5044839;28;20032;-78
2022/03/24 11:35:13;;;;;;;38.53;28.30;;;20.30;42.30;;;;;;5060481;28;20057;-79
2022/03/24 11:37:40;;;;;;;36.53;26.70;;;20.40;40.90;;;;;;5060762;28;20029;-80
2022/03/24 11:40:12;;;;;;;42.03;30.38;;;20.40;39.80;;;;;;5041560;28;20084;-79
2022/03/24 11:43:14;;;;;;;41.00;30.38;;;20.50;41.30;;;;;;5058722;28;20044;-77
2022/03/24 11:46:02;;;;;;;45.33;31.73;;;20.70;41.30;;;;;;5035481;28;20044;-79
2022/03/24 11:48:41;;;;;;;52.00;32.58;;;20.90;41.60;;;;;;5040192;28;20087;-77
2022/03/24 11:51:23;;;;;;;48.00;32.63;;;20.90;41.40;;;;;;5040141;28;20022;-78
2022/03/24 11:54:04;;;;;;;47.50;32.40;;;20.70;42.40;;;;;;5039621;28;20481;-79
2022/03/24 11:56:30;;;;;;;41.03;30.30;;;20.70;42.00;;;;;;5039875;28;20021;-79
2022/03/24 11:58:56;;;;;;;42.17;30.15;;;20.60;42.40;;;;;;5022725;28;20025;-75
2022/03/24 12:01:22;;;;;;;40.92;28.58;;;20.80;41.50;;;;;;5040073;28;20444;-78
2022/03/24 12:04:00;;;;;;;43.20;28.67;;;20.70;39.70;;;;;;5044299;28;20028;-78
2022/03/24 12:06:41;;;;;;;37.63;27.83;;;20.80;40.70;;;;;;5041620;28;20053;-79
2022/03/24 12:09:09;;;;;;;36.90;27.25;;;21.00;40.90;;;;;;5040745;28;20029;-77
2022/03/24 12:11:37;;;;;;;35.53;27.00;;;21.20;39.30;;;;;;5039793;28;20021;-78
2022/03/24 12:14:20;;;;;;;37.08;27.65;;;21.40;39.40;;;;;;5034401;28;20335;-79
2022/03/24 12:16:53;;;;;;;35.28;26.95;;;21.40;37.60;;;;;;5036389;28;20021;-79
2022/03/24 12:19:41;;;;;;;37.60;26.67;;;21.20;37.50;;;;;;5023803;28;20365;-79
2022/03/24 12:22:25;;;;;;;40.03;27.90;;;21.20;38.30;;;;;;5044430;28;20025;-77
2022/03/24 12:24:52;;;;;;;35.22;26.02;;;21.40;37.40;;;;;;5027905;28;20043;-80
2022/03/24 12:27:18;;;;;;;39.47;28.73;;;21.50;38.60;;;;;;5028827;28;20025;-78
2022/03/24 12:30:11;;;;;;;38.60;28.00;;;21.50;38.40;;;;;;5029532;28;20132;-77
2022/03/24 12:32:37;;;;;;;39.45;27.35;;;21.40;37.60;;;;;;5045134;28;20029;-79
2022/03/24 12:35:05;;;;;;;36.72;26.45;;;21.40;38.30;;;;;;5038203;28;20096;-78
2022/03/24 12:37:30;;;;;;;42.97;27.52;;;21.20;38.40;;;;;;5018693;28;20057;-79